createdAt,value
2023-05-02T00:00:43.201Z,96338.38
2023-05-02T00:03:12.619Z,96343.31
2023-05-02T00:05:42.322Z,96339.59
2023-05-02T00:08:10.765Z,96340.84
2023-05-02T00:10:39.095Z,96343.53
2023-05-02T00:13:07.382Z,96337.97
2023-05-02T00:15:35.690Z,96339.97
2023-05-02T00:18:03.999Z,96339.16
2023-05-02T00:20:32.340Z,96334.91
2023-05-02T00:23:02.006Z,96333.22
2023-05-02T00:25:30.671Z,96333.59
2023-05-02T00:27:59.044Z,96339.50
2023-05-02T00:30:27.477Z,96334.81
2023-05-02T00:32:55.982Z,96337.91
2023-05-02T00:35:24.364Z,96332.22
2023-05-02T00:37:52.749Z,96331.53
2023-05-02T00:40:22.508Z,96340.50
2023-05-02T00:42:50.966Z,96338.50
2023-05-02T00:45:19.493Z,96337.66
2023-05-02T00:47:47.914Z,96340.78
2023-05-02T00:50:16.400Z,96338.69
2023-05-02T00:52:44.724Z,96335.44
2023-05-02T00:55:13.011Z,96334.41
2023-05-02T00:57:42.661Z,96331.66
2023-05-02T01:00:12.502Z,96336.38
2023-05-02T01:02:48.089Z,96333.91
2023-05-02T01:05:20.192Z,96342.59
2023-05-02T01:07:57.046Z,96344.09
2023-05-02T01:10:33.576Z,96343.00
2023-05-02T01:13:07.064Z,96340.63
2023-05-02T01:15:36.356Z,96339.06
2023-05-02T01:18:06.589Z,96338.50
2023-05-02T01:20:38.555Z,96339.28
2023-05-02T01:23:12.865Z,96338.66
2023-05-02T01:25:50.165Z,96337.31
2023-05-02T01:28:29.482Z,96343.56
2023-05-02T01:30:59.539Z,96350.28
2023-05-02T01:33:29.684Z,96351.41
2023-05-02T01:35:58.831Z,96349.88
2023-05-02T01:38:28.592Z,96356.13
2023-05-02T01:40:58.267Z,96349.91
2023-05-02T01:43:27.395Z,96347.19
2023-05-02T01:45:57.053Z,96351.44
2023-05-02T01:48:28.296Z,96359.41
2023-05-02T01:50:58.872Z,96349.50
2023-05-02T01:53:27.326Z,96357.22
2023-05-02T01:55:56.003Z,96351.44
2023-05-02T01:58:25.326Z,96359.06
2023-05-02T02:00:54.472Z,96364.88
2023-05-02T02:03:22.931Z,96365.03
2023-05-02T02:05:53.595Z,96369.31
2023-05-02T02:08:21.654Z,96366.69
2023-05-02T02:10:55.157Z,96366.34
2023-05-02T02:13:29.002Z,96373.00
2023-05-02T02:16:00.955Z,96368.94
2023-05-02T02:18:29.471Z,96367.84
2023-05-02T02:21:00.878Z,96375.75
2023-05-02T02:23:30.594Z,96375.13
2023-05-02T02:25:59.062Z,96374.09
2023-05-02T02:28:27.458Z,96377.66
2023-05-02T02:30:56.084Z,96369.00
2023-05-02T02:33:26.794Z,96379.03
2023-05-02T02:35:55.105Z,96381.28
2023-05-02T02:38:31.829Z,96387.38
2023-05-02T02:41:04.339Z,96391.16
2023-05-02T02:43:35.336Z,96396.69
2023-05-02T02:46:10.432Z,96395.56
2023-05-02T02:48:43.217Z,96405.53
2023-05-02T02:51:15.879Z,96405.53
2023-05-02T02:53:54.009Z,96398.53
2023-05-02T02:56:28.562Z,96396.69
2023-05-02T02:58:59.663Z,96396.19
2023-05-02T03:01:29.273Z,96406.34
2023-05-02T03:03:58.593Z,96401.31
2023-05-02T03:06:27.722Z,96403.06
2023-05-02T03:08:57.387Z,96400.69
2023-05-02T03:11:27.158Z,96408.25
2023-05-02T03:13:55.966Z,96412.88
2023-05-02T03:16:36.541Z,96405.28
2023-05-02T03:19:05.480Z,96410.47
2023-05-02T03:21:34.427Z,96415.09
2023-05-02T03:24:06.121Z,96417.78
2023-05-02T03:26:34.320Z,96418.94
2023-05-02T03:29:02.572Z,96422.75
2023-05-02T03:31:30.835Z,96409.56
2023-05-02T03:33:59.186Z,96419.19
2023-05-02T03:36:27.484Z,96420.28
2023-05-02T03:38:56.004Z,96410.97
2023-05-02T03:41:25.863Z,96414.63
2023-05-02T03:43:54.075Z,96417.91
2023-05-02T03:46:22.516Z,96424.00
2023-05-02T03:48:50.770Z,96427.28
2023-05-02T03:51:19.263Z,96426.06
2023-05-02T03:53:47.721Z,96432.41
2023-05-02T03:56:20.209Z,96429.09
2023-05-02T03:58:50.641Z,96441.66
2023-05-02T04:01:19.069Z,96446.28
2023-05-02T04:03:47.440Z,96441.16
2023-05-02T04:06:15.769Z,96445.25
2023-05-02T04:08:44.003Z,96448.16
2023-05-02T04:11:12.306Z,96453.66
2023-05-02T04:13:40.602Z,96459.94
2023-05-02T04:16:10.619Z,96458.50
2023-05-02T04:18:38.842Z,96466.88
2023-05-02T04:21:09.939Z,96460.75
2023-05-02T04:23:38.307Z,96464.69
2023-05-02T04:26:06.765Z,96462.25
2023-05-02T04:28:36.256Z,96477.78
2023-05-02T04:31:04.998Z,96472.19
2023-05-02T04:33:34.639Z,96471.22
2023-05-02T04:36:02.948Z,96477.41
2023-05-02T04:38:31.171Z,96478.44
2023-05-02T04:40:59.552Z,96488.38
2023-05-02T04:43:37.260Z,96482.34
2023-05-02T04:46:05.819Z,96489.56
2023-05-02T04:48:35.442Z,96482.44
2023-05-02T04:51:03.783Z,96483.03
2023-05-02T04:53:31.991Z,96488.88
2023-05-02T04:56:00.433Z,96494.72
2023-05-02T04:58:28.775Z,96493.53
2023-05-02T05:00:57.037Z,96496.78
2023-05-02T05:03:25.957Z,96502.91
2023-05-02T05:05:55.661Z,96499.34
2023-05-02T05:08:23.940Z,96500.22
2023-05-02T05:10:52.559Z,96507.47
2023-05-02T05:13:20.992Z,96512.66
2023-05-02T05:15:49.271Z,96523.78
2023-05-02T05:18:18.111Z,96511.53
2023-05-02T05:20:46.327Z,96522.69
2023-05-02T05:23:16.058Z,96521.56
2023-05-02T05:25:45.765Z,96525.38
2023-05-02T05:28:14.276Z,96521.88
2023-05-02T05:30:42.486Z,96527.50
2023-05-02T05:33:10.742Z,96533.28
2023-05-02T05:35:39.085Z,96527.66
2023-05-02T05:38:07.955Z,96521.97
2023-05-02T05:40:37.969Z,96522.78
2023-05-02T05:43:06.301Z,96531.09
2023-05-02T05:45:34.570Z,96538.44
2023-05-02T05:48:02.825Z,96542.56
2023-05-02T05:50:31.149Z,96538.50
2023-05-02T05:52:59.335Z,96551.63
2023-05-02T05:55:28.939Z,96546.66
2023-05-02T05:57:58.549Z,96561.22
2023-05-02T06:00:27.240Z,96550.03
2023-05-02T06:02:55.485Z,96558.34
2023-05-02T06:05:23.940Z,96553.19
2023-05-02T06:07:52.194Z,96549.63
2023-05-02T06:10:20.486Z,96566.59
2023-05-02T06:12:49.378Z,96560.16
2023-05-02T06:15:19.371Z,96569.28
2023-05-02T06:17:47.674Z,96563.22
2023-05-02T06:20:17.409Z,96572.84
2023-05-02T06:22:46.888Z,96572.81
2023-05-02T06:25:15.102Z,96574.44
2023-05-02T06:27:43.295Z,96584.69
2023-05-02T06:30:12.138Z,96593.81
2023-05-02T06:32:44.112Z,96592.91
2023-05-02T06:35:12.633Z,96600.47
2023-05-02T06:37:40.828Z,96598.84
2023-05-02T06:40:10.397Z,96601.53
2023-05-02T06:42:38.680Z,96607.47
2023-05-02T06:45:07.815Z,96610.22
2023-05-02T06:47:36.096Z,96597.59
2023-05-02T06:50:06.427Z,96618.84
2023-05-02T06:52:34.692Z,96607.47
2023-05-02T06:55:03.034Z,96595.00
2023-05-02T06:57:31.389Z,96603.78
2023-05-02T06:59:59.860Z,96602.50
2023-05-02T07:02:28.268Z,96617.75
2023-05-02T07:04:56.547Z,96615.75
2023-05-02T07:07:26.214Z,96604.53
2023-05-02T07:09:54.480Z,96614.69
2023-05-02T07:12:22.826Z,96613.78
2023-05-02T07:14:51.150Z,96617.75
2023-05-02T07:17:19.574Z,96630.59
2023-05-02T07:19:47.873Z,96624.53
2023-05-02T07:22:16.332Z,96621.19
2023-05-02T07:24:46.552Z,96614.50
2023-05-02T07:27:14.826Z,96625.34
2023-05-02T07:29:43.462Z,96616.16
2023-05-02T07:32:11.733Z,96621.41
2023-05-02T07:34:39.958Z,96617.28
2023-05-02T07:37:08.275Z,96614.41
2023-05-02T07:39:36.512Z,96612.63
2023-05-02T07:42:06.639Z,96627.94
2023-05-02T07:44:36.033Z,96617.09
2023-05-02T07:47:04.326Z,96620.31
2023-05-02T07:49:32.519Z,96627.53
2023-05-02T07:52:01.103Z,96627.16
2023-05-02T07:54:29.437Z,96627.72
2023-05-02T07:57:02.183Z,96624.59
2023-05-02T07:59:32.619Z,96628.59
2023-05-02T08:02:00.999Z,96636.41
2023-05-02T08:04:29.308Z,96636.88
2023-05-02T08:06:57.706Z,96640.91
2023-05-02T08:09:25.959Z,96646.72
2023-05-02T08:11:54.189Z,96650.22
2023-05-02T08:14:22.394Z,96649.84
2023-05-02T08:16:52.179Z,96651.56
2023-05-02T08:19:20.561Z,96661.13
2023-05-02T08:21:48.855Z,96651.09
2023-05-02T08:24:17.058Z,96655.66
2023-05-02T08:26:45.269Z,96641.22
2023-05-02T08:29:13.674Z,96651.41
2023-05-02T08:31:42.350Z,96650.00
2023-05-02T08:34:11.949Z,96649.38
2023-05-02T08:36:40.219Z,96656.09
2023-05-02T08:39:09.392Z,96654.31
2023-05-02T08:41:39.089Z,96647.59
2023-05-02T08:44:08.025Z,96651.91
2023-05-02T08:46:37.383Z,96657.34
2023-05-02T08:49:06.805Z,96658.53
2023-05-02T08:51:38.538Z,96661.34
2023-05-02T08:54:09.576Z,96652.31
2023-05-02T08:56:38.948Z,96653.47
2023-05-02T08:59:08.164Z,96667.00
2023-05-02T09:01:37.419Z,96672.66
2023-05-02T09:04:05.929Z,96665.91
2023-05-02T09:06:35.238Z,96672.88
2023-05-02T09:09:04.995Z,96673.44
2023-05-02T09:11:33.282Z,96677.09
2023-05-02T09:14:04.201Z,96672.94
2023-05-02T09:16:40.016Z,96675.09
2023-05-02T09:19:08.382Z,96682.25
2023-05-02T09:21:38.114Z,96676.03
2023-05-02T09:24:18.269Z,96673.94
2023-05-02T09:26:58.435Z,96681.44
2023-05-02T09:29:28.482Z,96682.25
2023-05-02T09:31:57.031Z,96690.94
2023-05-02T09:34:25.501Z,96694.00
2023-05-02T09:36:54.794Z,96701.66
2023-05-02T09:39:26.402Z,96696.41
2023-05-02T09:41:55.239Z,96696.84
2023-05-02T09:44:25.828Z,96703.81
2023-05-02T09:46:54.573Z,96701.63
2023-05-02T09:49:40.520Z,96702.75
2023-05-02T09:52:12.387Z,96710.22
2023-05-02T09:54:42.246Z,96709.19
2023-05-02T09:57:11.448Z,96701.22
2023-05-02T09:59:41.025Z,96696.84
2023-05-02T10:02:11.578Z,96699.13
2023-05-02T10:04:40.583Z,96709.91
2023-05-02T10:07:10.506Z,96696.63
2023-05-02T10:09:43.250Z,96697.03
2023-05-02T10:12:15.581Z,96701.78
2023-05-02T10:14:49.411Z,96697.97
2023-05-02T10:17:24.610Z,96700.47
2023-05-02T10:20:02.230Z,96707.13
2023-05-02T10:22:31.084Z,96703.84
2023-05-02T10:25:01.206Z,96701.06
2023-05-02T10:27:30.506Z,96704.50
2023-05-02T10:29:59.769Z,96708.66
2023-05-02T10:32:29.670Z,96701.22
2023-05-02T10:34:58.674Z,96704.31
2023-05-02T10:37:27.755Z,96699.00
2023-05-02T10:39:56.326Z,96702.19
2023-05-02T10:42:26.261Z,96700.19
2023-05-02T10:44:54.577Z,96704.78
2023-05-02T10:47:23.326Z,96696.41
2023-05-02T10:49:53.205Z,96708.88
2023-05-02T10:52:27.151Z,96694.19
2023-05-02T10:55:14.980Z,96697.28
2023-05-02T10:58:20.755Z,96697.56
2023-05-02T11:00:50.539Z,96700.00
2023-05-02T11:03:52.232Z,96698.34
2023-05-02T11:06:20.624Z,96687.28
2023-05-02T11:08:49.032Z,96690.22
2023-05-02T11:11:42.701Z,96697.84
2023-05-02T11:14:12.086Z,96697.09
2023-05-02T11:17:10.877Z,96695.75
2023-05-02T11:20:27.568Z,96697.28
2023-05-02T11:23:00.962Z,96693.38
2023-05-02T11:25:40.139Z,96693.25
2023-05-02T11:28:10.367Z,96695.41
2023-05-02T11:30:40.601Z,96684.28
2023-05-02T11:33:17.284Z,96685.47
2023-05-02T11:35:47.257Z,96695.13
2023-05-02T11:38:21.084Z,96695.63
2023-05-02T11:40:57.183Z,96694.28
2023-05-02T11:43:30.107Z,96695.03
2023-05-02T11:46:00.681Z,96693.47
2023-05-02T11:48:31.773Z,96691.75
2023-05-02T11:51:03.774Z,96686.63
2023-05-02T11:53:32.895Z,96688.16
2023-05-02T11:56:02.346Z,96694.19
2023-05-02T11:58:32.851Z,96690.63
2023-05-02T12:01:13.173Z,96698.13
2023-05-02T12:03:43.135Z,96704.28
2023-05-02T12:06:13.244Z,96703.94
2023-05-02T12:08:43.276Z,96694.38
2023-05-02T12:11:14.472Z,96700.28
2023-05-02T12:13:46.681Z,96691.94
2023-05-02T12:16:15.311Z,96690.22
2023-05-02T12:18:45.242Z,96692.47
2023-05-02T12:21:13.669Z,96700.63
2023-05-02T12:23:42.995Z,96686.50
2023-05-02T12:26:21.481Z,96683.28
2023-05-02T12:28:50.515Z,96686.22
2023-05-02T12:31:20.706Z,96686.09
2023-05-02T12:33:52.403Z,96690.28
2023-05-02T12:36:20.828Z,96690.16
2023-05-02T12:38:50.975Z,96688.22
2023-05-02T12:41:19.888Z,96702.59
2023-05-02T12:43:49.335Z,96693.09
2023-05-02T12:46:17.864Z,96704.63
2023-05-02T12:48:46.836Z,96701.75
2023-05-02T12:51:25.783Z,96701.13
2023-05-02T12:53:54.015Z,96702.91
2023-05-02T12:56:22.853Z,96711.94
2023-05-02T12:58:51.644Z,96730.19
2023-05-02T13:01:19.989Z,96739.16
2023-05-02T13:03:48.947Z,96747.94
2023-05-02T13:06:17.996Z,96746.97
2023-05-02T13:08:47.627Z,96743.78
2023-05-02T13:11:15.897Z,96763.09
2023-05-02T13:13:44.195Z,96763.69
2023-05-02T13:16:12.640Z,96768.41
2023-05-02T13:18:41.141Z,96770.25
2023-05-02T13:21:09.653Z,96778.91
2023-05-02T13:23:39.506Z,96773.56
2023-05-02T13:26:09.194Z,96772.81
2023-05-02T13:28:37.455Z,96769.16
2023-05-02T13:31:09.068Z,96759.00
2023-05-02T13:33:46.409Z,96760.19
2023-05-02T13:36:14.723Z,96767.28
2023-05-02T13:38:43.102Z,96763.75
2023-05-02T13:41:12.733Z,96761.56
2023-05-02T13:43:41.086Z,96758.97
2023-05-02T13:46:09.434Z,96764.06
2023-05-02T13:48:38.347Z,96752.28
2023-05-02T13:51:06.619Z,96762.22
2023-05-02T13:53:34.998Z,96763.75
2023-05-02T13:56:03.306Z,96774.66
2023-05-02T13:58:32.861Z,96777.78
2023-05-02T14:01:01.560Z,96777.72
2023-05-02T14:03:29.917Z,96773.59
2023-05-02T14:05:58.177Z,96773.44
2023-05-02T14:08:26.436Z,96768.28
2023-05-02T14:10:54.679Z,96766.25
2023-05-02T14:13:23.094Z,96760.22
2023-05-02T14:15:52.768Z,96754.69
2023-05-02T14:18:21.363Z,96746.88
2023-05-02T14:20:49.659Z,96742.78
2023-05-02T14:23:17.972Z,96741.28
2023-05-02T14:25:46.178Z,96738.31
2023-05-02T14:28:14.432Z,96734.78
2023-05-02T14:30:42.667Z,96743.28
2023-05-02T14:33:12.359Z,96749.25
2023-05-02T14:35:40.680Z,96744.72
2023-05-02T14:38:08.956Z,96743.47
2023-05-02T14:40:38.128Z,96742.03
2023-05-02T14:43:15.457Z,96739.72
2023-05-02T14:45:44.555Z,96739.56
2023-05-02T14:48:17.089Z,96749.56
2023-05-02T14:50:45.473Z,96741.59
2023-05-02T14:53:14.228Z,96734.56
2023-05-02T14:55:42.855Z,96741.03
2023-05-02T14:58:11.728Z,96744.38
2023-05-02T15:00:40.175Z,96732.41
2023-05-02T15:03:09.795Z,96729.91
2023-05-02T15:05:40.079Z,96731.34
2023-05-02T15:08:08.455Z,96721.53
2023-05-02T15:10:39.709Z,96723.50
2023-05-02T15:13:08.841Z,96727.13
2023-05-02T15:15:37.535Z,96724.91
2023-05-02T15:18:06.041Z,96724.66
2023-05-02T15:20:34.455Z,96729.22
2023-05-02T15:23:04.598Z,96727.84
2023-05-02T15:25:33.027Z,96727.81
2023-05-02T15:28:02.535Z,96725.19
2023-05-02T15:30:30.863Z,96720.97
2023-05-02T15:32:59.143Z,96717.94
2023-05-02T15:35:27.560Z,96719.97
2023-05-02T15:37:56.515Z,96721.13
2023-05-02T15:40:28.388Z,96725.69
2023-05-02T15:42:56.720Z,96732.78
2023-05-02T15:45:25.053Z,96739.41
2023-05-02T15:47:53.242Z,96738.19
2023-05-02T15:50:21.551Z,96744.00
2023-05-02T15:52:50.043Z,96748.88
2023-05-02T15:55:18.336Z,96753.06
2023-05-02T15:57:51.662Z,96753.25
2023-05-02T16:00:20.400Z,96761.16
2023-05-02T16:02:48.670Z,96778.13
2023-05-02T16:05:17.152Z,96795.66
2023-05-02T16:07:45.453Z,96804.22
2023-05-02T16:10:14.268Z,96820.75
2023-05-02T16:12:42.508Z,96829.63
2023-05-02T16:15:12.320Z,96826.72
2023-05-02T16:17:42.953Z,96823.03
2023-05-02T16:20:12.914Z,96827.16
2023-05-02T16:22:44.242Z,96837.06
2023-05-02T16:25:12.655Z,96840.34
2023-05-02T16:27:41.116Z,96832.31
2023-05-02T16:30:10.614Z,96843.97
2023-05-02T16:32:40.668Z,96838.91
2023-05-02T16:35:12.367Z,96848.38
2023-05-02T16:37:41.147Z,96844.09
2023-05-02T16:40:10.395Z,96861.44
2023-05-02T16:42:38.781Z,96858.16
2023-05-02T16:45:08.669Z,96859.19
2023-05-02T16:47:37.654Z,96857.41
2023-05-02T16:50:08.654Z,96858.69
2023-05-02T16:52:38.139Z,96850.81
2023-05-02T16:55:07.147Z,96859.97
2023-05-02T16:57:35.456Z,96853.44
2023-05-02T17:00:04.688Z,96857.34
2023-05-02T17:02:33.320Z,96860.59
2023-05-02T17:05:01.663Z,96862.69
2023-05-02T17:07:31.303Z,96864.94
2023-05-02T17:09:59.628Z,96860.94
2023-05-02T17:12:28.009Z,96864.75
2023-05-02T17:14:56.282Z,96861.66
2023-05-02T17:17:24.525Z,96870.28
2023-05-02T17:19:52.767Z,96868.25
2023-05-02T17:22:21.472Z,96871.16
2023-05-02T17:24:54.122Z,96864.16
2023-05-02T17:27:22.437Z,96869.19
2023-05-02T17:29:50.766Z,96872.19
2023-05-02T17:32:19.030Z,96879.63
2023-05-02T17:34:47.261Z,96872.38
2023-05-02T17:37:15.593Z,96872.31
2023-05-02T17:39:43.850Z,96879.66
2023-05-02T17:42:13.445Z,96878.13
2023-05-02T17:44:41.892Z,96879.03
2023-05-02T17:47:10.124Z,96878.13
2023-05-02T17:49:38.336Z,96876.44
2023-05-02T17:52:06.659Z,96870.06
2023-05-02T17:54:34.892Z,96885.59
2023-05-02T17:57:03.291Z,96890.59
2023-05-02T17:59:32.903Z,96885.34
2023-05-02T18:02:01.228Z,96893.84
2023-05-02T18:04:29.550Z,96900.81
2023-05-02T18:06:57.763Z,96901.13
2023-05-02T18:09:26.093Z,96893.47
2023-05-02T18:11:55.423Z,96885.75
2023-05-02T18:14:23.693Z,96888.06
2023-05-02T18:16:53.309Z,96890.13
2023-05-02T18:19:21.955Z,96890.94
2023-05-02T18:21:50.355Z,96892.22
2023-05-02T18:24:18.724Z,96889.78
2023-05-02T18:26:49.324Z,96895.09
2023-05-02T18:29:17.990Z,96899.84
2023-05-02T18:31:52.197Z,96899.44
2023-05-02T18:34:22.844Z,96914.72
2023-05-02T18:36:51.164Z,96916.38
2023-05-02T18:39:21.549Z,96925.84
2023-05-02T18:41:49.908Z,96925.78
2023-05-02T18:44:18.184Z,96924.59
2023-05-02T18:46:46.960Z,96937.63
2023-05-02T18:49:15.659Z,96941.56
2023-05-02T18:51:45.304Z,96930.22
2023-05-02T18:54:13.643Z,96946.09
2023-05-02T18:56:42.261Z,96950.88
2023-05-02T18:59:10.602Z,96945.94
2023-05-02T19:01:38.960Z,96941.78
2023-05-02T19:04:07.319Z,96940.31
2023-05-02T19:06:35.856Z,96940.28
2023-05-02T19:09:05.707Z,96945.63
2023-05-02T19:11:34.086Z,96950.59
2023-05-02T19:14:03.596Z,96952.91
2023-05-02T19:16:32.199Z,96958.00
2023-05-02T19:19:00.540Z,96956.19
2023-05-02T19:21:28.922Z,96967.34
2023-05-02T19:23:57.450Z,96961.25
2023-05-02T19:26:27.141Z,96956.00
2023-05-02T19:28:55.427Z,96961.97
2023-05-02T19:31:24.350Z,96966.97
2023-05-02T19:33:52.768Z,96961.66
2023-05-02T19:36:22.007Z,96969.75
2023-05-02T19:38:51.108Z,96967.41
2023-05-02T19:41:19.527Z,96967.66
2023-05-02T19:43:49.217Z,96979.09
2023-05-02T19:46:18.053Z,96971.13
2023-05-02T19:48:46.636Z,96979.41
2023-05-02T19:51:14.875Z,96981.16
2023-05-02T19:53:43.137Z,96981.84
2023-05-02T19:56:11.421Z,96975.56
2023-05-02T19:58:39.646Z,96979.75
2023-05-02T20:01:09.288Z,96981.41
2023-05-02T20:03:37.618Z,96985.34
2023-05-02T20:06:06.123Z,96977.72
2023-05-02T20:08:34.491Z,96981.03
2023-05-02T20:11:03.166Z,96982.41
2023-05-02T20:13:31.457Z,96991.09
2023-05-02T20:15:59.790Z,96985.94
2023-05-02T20:18:29.469Z,96991.91
2023-05-02T20:20:57.790Z,96986.84
2023-05-02T20:23:26.154Z,96997.75
2023-05-02T20:25:54.408Z,96996.72
2023-05-02T20:28:22.685Z,97004.38
2023-05-02T20:30:50.996Z,97005.53
2023-05-02T20:33:19.795Z,97013.00
2023-05-02T20:35:54.672Z,97004.53
2023-05-02T20:38:24.216Z,97013.69
2023-05-02T20:40:53.086Z,97013.28
2023-05-02T20:43:22.895Z,97011.19
2023-05-02T20:45:51.224Z,97006.16
2023-05-02T20:48:19.517Z,97008.28
2023-05-02T20:50:55.886Z,97002.88
2023-05-02T20:53:26.444Z,97002.41
2023-05-02T20:55:54.567Z,96997.63
2023-05-02T20:58:22.728Z,96999.00
2023-05-02T21:00:52.623Z,96999.34
2023-05-02T21:03:21.659Z,97001.94
2023-05-02T21:05:53.534Z,97003.88
2023-05-02T21:08:24.890Z,97002.41
2023-05-02T21:10:54.097Z,96997.63
2023-05-02T21:13:22.821Z,96995.47
2023-05-02T21:15:51.168Z,96995.59
2023-05-02T21:18:19.480Z,96992.91
2023-05-02T21:20:49.079Z,96988.47
2023-05-02T21:23:17.401Z,96990.25
2023-05-02T21:25:47.102Z,96991.19
2023-05-02T21:28:15.427Z,96989.06
2023-05-02T21:30:43.743Z,96985.53
2023-05-02T21:33:12.610Z,96991.91
2023-05-02T21:35:40.909Z,96992.25
2023-05-02T21:38:09.202Z,96992.69
2023-05-02T21:40:38.145Z,96999.22
2023-05-02T21:43:07.788Z,96991.97
2023-05-02T21:45:36.068Z,96995.41
2023-05-02T21:48:04.634Z,96996.47
2023-05-02T21:50:33.980Z,96991.38
2023-05-02T21:53:02.537Z,96980.28
2023-05-02T21:55:30.855Z,96987.03
2023-05-02T21:57:59.160Z,96982.53
2023-05-02T22:00:28.843Z,96982.19
2023-05-02T22:02:57.482Z,96991.53
2023-05-02T22:05:25.840Z,96988.94
2023-05-02T22:07:55.571Z,96992.28
2023-05-02T22:10:23.858Z,96995.44
2023-05-02T22:12:52.195Z,96987.44
2023-05-02T22:15:20.614Z,96996.72
2023-05-02T22:17:50.727Z,96988.75
2023-05-02T22:20:19.128Z,96989.50
2023-05-02T22:22:47.580Z,96986.22
2023-05-02T22:25:15.986Z,96987.91
2023-05-02T22:27:44.352Z,96993.09
2023-05-02T22:30:12.988Z,96988.06
2023-05-02T22:32:42.327Z,96999.59
2023-05-02T22:35:12.220Z,97003.97
2023-05-02T22:37:40.543Z,97001.91
2023-05-02T22:40:10.359Z,97008.81
2023-05-02T22:42:38.713Z,97003.28
2023-05-02T22:45:09.494Z,97001.09
2023-05-02T22:47:37.905Z,96997.72
2023-05-02T22:50:11.388Z,97002.69
2023-05-02T22:52:41.118Z,97007.00
2023-05-02T22:55:10.620Z,97007.75
2023-05-02T22:57:39.092Z,97009.03
2023-05-02T23:00:10.803Z,97010.09
2023-05-02T23:02:39.382Z,97004.38
2023-05-02T23:05:09.492Z,97011.91
2023-05-02T23:07:37.872Z,97008.53
2023-05-02T23:10:09.367Z,97007.06
2023-05-02T23:12:37.768Z,97007.91
2023-05-02T23:15:06.937Z,97007.06
2023-05-02T23:17:38.326Z,97012.75
2023-05-02T23:20:10.237Z,97007.75
2023-05-02T23:22:45.575Z,97006.56
2023-05-02T23:25:16.282Z,97007.06
2023-05-02T23:27:44.364Z,97005.06
2023-05-02T23:30:13.018Z,97010.38
2023-05-02T23:32:41.466Z,97004.56
2023-05-02T23:35:11.114Z,97004.59
2023-05-02T23:37:40.390Z,96996.13
2023-05-02T23:40:10.275Z,97009.41
2023-05-02T23:42:40.549Z,97008.41
2023-05-02T23:45:09.529Z,97006.56
2023-05-02T23:47:38.251Z,97003.75
2023-05-02T23:50:07.654Z,96999.59
2023-05-02T23:52:35.978Z,97003.59
2023-05-02T23:55:08.487Z,96992.78
2023-05-02T23:57:36.827Z,96994.63
